Groveville, New Jersey
Current Conditions -  °F | °C
As of 12:58 PM on Wednesday 28 Jan 2015 (Local Time) from KWRI Reporting Station
Clear Clear  
Wind Chill: 16°   Ceiling: Unl
Heat Index: 29°   Visibility: 10mi
Dew Point:   Wind: 18mph
Humidity: 43%   Direction: 300°WNW
Pressure: 30.06"   Gusts: 23mph
Location:  40.1542°N, 74.6404°W
Report Text: KWRI 281758Z 30016G20KT 10SM CLR M02/M13 A3006 RMK AO2A SLP185 T10191129 11019 21088 4/002 58002 $
Loading
Personal Weather Stations






























Interactive Weather Map New forecast layout! Learn more

10-Day Weather Forecast

Advertisements
Track Severe Weather on mobile